Greater Binghamton/Edwin A Link field
KBGM : now visible

Airfield :











YOU CAN JOIN US ON...

 
LOGIN :

Register | Disclaimer

   EN    FR    IT 

 









Legend :    VFR   Marginal VFR   IFR   Intensive IFR   Very Intensive IFR
Visi :
Ceiling :
>= 8 km
>= 3000ft
5 to 8 km
1000 to 3000 ft
1500m to 5 km
500 to 1000 ft
800 to 1500m
200 to 500 ft
< 800m
< 200 ft
Symbols :   Thunderstorms  Fog  Heavy snow  Heavy precipitations  Wind > 20 kt







- Airport Elevation : 1636 ft
- IATA code : BGM


KBGM - Greater Binghamton/Edwin A Link field

CURRENT METAR :
  • 210753Z AUTO 25005KT 10SM CLR 22/21 A2983 RMK AO2 SLP087 T02220206

EXPIRED METARs :
  • 210653Z AUTO 19006KT 10SM CLR 23/20 A2981 RMK AO2 PRESFR SLP080 T02330200
  • 210553Z AUTO 27007KT 10SM CLR 24/20 A2988 RMK AO2 SLP102 T02390200 10283 20233 58009

TAF KBGM
Valid from the 21 at 09:00 until the 22 at 06:00 UTC


210833Z 2109/2206 24005KT P6SM SCT100
FM211100 25004KT P6SM BKN035
TEMPO 2111/2114 BKN025
FM211400 29012KT P6SM BKN035
FM212300 33005KT P6SM SCT100
KZNY FIR / North America



MET'MAP, your aeronautical weather chart ! - Copyright ORBIFLY December 2007 - Disclaimer

ORBIFLY MET'MAP TEAM :

Programming & Development : Alexandra Zaïnal
Concept & Development : Baudouin d'Aumeries
Co-Development & Prog : Marc-Olivier Méhu
Technical & hardware support : Manuel Goepfert

Contact : metmap@orbifly.com




SOURCES & CREDITS :

   NOAA       Earth
Advisory